createdAt,value
2022-11-17T00:00:45.177Z,2.67
2022-11-17T00:01:48.624Z,4.43
2022-11-17T00:02:50.920Z,5.47
2022-11-17T00:03:53.174Z,2.70
2022-11-17T00:04:55.322Z,2.60
2022-11-17T00:05:57.548Z,2.42
2022-11-17T00:07:00.142Z,5.70
2022-11-17T00:08:02.423Z,2.20
2022-11-17T00:09:04.573Z,3.42
2022-11-17T00:10:07.070Z,3.55
2022-11-17T00:11:09.281Z,2.40
2022-11-17T00:12:32.859Z,7.38
2022-11-17T00:13:54.275Z,2.63
2022-11-17T00:14:56.436Z,2.78
2022-11-17T00:15:58.570Z,2.95
2022-11-17T00:17:02.331Z,7.18
2022-11-17T00:18:23.264Z,4.28
2022-11-17T00:19:44.152Z,7.15
2022-11-17T00:21:04.700Z,2.97
2022-11-17T00:22:06.902Z,5.38
2022-11-17T00:23:09.139Z,3.08
2022-11-17T00:24:16.100Z,2.60
2022-11-17T00:25:18.310Z,3.83
2022-11-17T00:26:22.382Z,2.90
2022-11-17T00:27:24.645Z,4.38
2022-11-17T00:28:27.046Z,4.05
2022-11-17T00:29:30.253Z,3.08
2022-11-17T00:30:50.797Z,2.97
2022-11-17T00:32:11.705Z,2.60
2022-11-17T00:33:32.294Z,2.70
2022-11-17T00:34:34.656Z,2.60
2022-11-17T00:35:36.882Z,2.97
2022-11-17T00:36:49.581Z,2.88
2022-11-17T00:38:10.649Z,3.00
2022-11-17T00:39:14.020Z,3.00
2022-11-17T00:40:16.172Z,3.13
2022-11-17T00:41:18.353Z,2.70
2022-11-17T00:42:20.486Z,2.78
2022-11-17T00:43:22.611Z,2.95
2022-11-17T00:44:25.566Z,2.90
2022-11-17T00:45:27.741Z,2.47
2022-11-17T00:46:29.995Z,3.05
2022-11-17T00:47:36.272Z,3.42
2022-11-17T00:48:38.507Z,2.80
2022-11-17T00:49:40.681Z,2.65
2022-11-17T00:50:42.830Z,3.25
2022-11-17T00:51:44.972Z,2.75
2022-11-17T00:52:47.167Z,3.25
2022-11-17T00:53:49.384Z,2.58
2022-11-17T00:54:51.543Z,2.80
2022-11-17T00:55:53.880Z,2.90
2022-11-17T00:56:56.078Z,2.80
2022-11-17T00:57:59.495Z,3.20
2022-11-17T00:59:01.885Z,2.85
2022-11-17T01:00:04.474Z,3.33
2022-11-17T01:01:06.754Z,2.97
2022-11-17T01:02:09.171Z,2.80
2022-11-17T01:03:11.598Z,2.83
2022-11-17T01:04:15.784Z,2.80
2022-11-17T01:05:18.095Z,3.08
2022-11-17T01:06:20.474Z,3.30
2022-11-17T01:07:22.822Z,2.83
2022-11-17T01:08:25.069Z,2.95
2022-11-17T01:09:27.278Z,3.05
2022-11-17T01:10:29.453Z,2.67
2022-11-17T01:11:32.254Z,3.92
2022-11-17T01:12:34.514Z,3.00
2022-11-17T01:13:39.181Z,3.53
2022-11-17T01:14:41.709Z,2.97
2022-11-17T01:15:43.912Z,2.75
2022-11-17T01:16:46.418Z,2.83
2022-11-17T01:17:48.720Z,3.00
2022-11-17T01:18:51.710Z,2.97
2022-11-17T01:19:53.920Z,2.60
2022-11-17T01:20:56.181Z,2.90
2022-11-17T01:21:58.375Z,2.95
2022-11-17T01:23:00.548Z,2.88
2022-11-17T01:24:02.932Z,3.13
2022-11-17T01:25:05.708Z,2.70
2022-11-17T01:26:13.135Z,3.38
2022-11-17T01:27:15.316Z,2.90
2022-11-17T01:28:17.544Z,3.08
2022-11-17T01:29:19.880Z,2.97
2022-11-17T01:30:22.126Z,2.90
2022-11-17T01:31:27.346Z,3.35
2022-11-17T01:32:29.577Z,2.70
2022-11-17T01:33:31.997Z,2.75
2022-11-17T01:34:34.234Z,3.17
2022-11-17T01:35:36.376Z,3.83
2022-11-17T01:37:00.347Z,3.53
2022-11-17T01:38:02.519Z,3.15
2022-11-17T01:39:04.687Z,3.08
2022-11-17T01:40:07.831Z,3.42
2022-11-17T01:41:16.663Z,3.88
2022-11-17T01:42:22.424Z,3.15
2022-11-17T01:43:36.840Z,3.30
2022-11-17T01:44:54.633Z,3.10
2022-11-17T01:45:57.989Z,2.70
2022-11-17T01:47:01.146Z,3.00
2022-11-17T01:48:06.755Z,3.20
2022-11-17T01:49:21.386Z,3.00
2022-11-17T01:50:42.412Z,3.35
2022-11-17T01:51:50.275Z,3.10
2022-11-17T01:52:55.652Z,2.92
2022-11-17T01:53:59.046Z,3.63
2022-11-17T01:55:02.980Z,3.38
2022-11-17T01:56:11.016Z,2.90
2022-11-17T01:57:21.361Z,3.15
2022-11-17T01:58:29.114Z,3.35
2022-11-17T01:59:40.668Z,3.03
2022-11-17T02:01:55.521Z,3.13
2022-11-17T02:02:58.691Z,2.85
2022-11-17T02:04:01.118Z,2.70
2022-11-17T02:05:06.057Z,3.10
2022-11-17T02:06:13.878Z,3.10
2022-11-17T02:07:20.300Z,3.13
2022-11-17T02:08:26.095Z,3.17
2022-11-17T02:09:28.851Z,2.90
2022-11-17T02:10:32.264Z,3.15
2022-11-17T02:11:36.022Z,3.83
2022-11-17T02:12:38.585Z,3.17
2022-11-17T02:13:41.640Z,2.95
2022-11-17T02:14:44.307Z,2.83
2022-11-17T02:15:46.585Z,2.97
2022-11-17T02:16:48.813Z,2.78
2022-11-17T02:17:52.373Z,3.33
2022-11-17T02:18:54.779Z,2.75
2022-11-17T02:20:07.958Z,3.28
2022-11-17T02:21:29.107Z,2.67
2022-11-17T02:22:31.222Z,3.53
2022-11-17T02:23:46.611Z,3.00
2022-11-17T02:25:26.800Z,3.60
2022-11-17T02:26:54.930Z,2.70
2022-11-17T02:28:10.700Z,2.85
2022-11-17T02:29:35.998Z,2.58
2022-11-17T02:30:48.835Z,2.83
2022-11-17T02:32:04.896Z,2.72
2022-11-17T02:33:16.255Z,3.00
2022-11-17T02:34:42.698Z,2.40
2022-11-17T02:35:53.021Z,2.90
2022-11-17T02:37:02.691Z,2.70
2022-11-17T02:38:15.781Z,3.13
2022-11-17T02:39:21.077Z,3.45
2022-11-17T02:40:31.038Z,3.03
2022-11-17T02:41:55.333Z,3.55
2022-11-17T02:43:19.248Z,2.78
2022-11-17T02:44:36.667Z,2.60
2022-11-17T02:46:16.304Z,2.80
2022-11-17T02:47:23.921Z,2.80
2022-11-17T02:48:32.435Z,3.00
2022-11-17T02:49:42.096Z,2.70
2022-11-17T02:50:47.567Z,3.03
2022-11-17T02:51:52.877Z,2.90
2022-11-17T02:52:55.814Z,2.67
2022-11-17T02:54:00.004Z,2.75
2022-11-17T02:55:11.374Z,2.80
2022-11-17T02:56:13.544Z,3.00
2022-11-17T02:57:37.441Z,2.70
2022-11-17T02:58:39.655Z,2.83
2022-11-17T02:59:48.414Z,2.33
2022-11-17T03:01:27.483Z,2.90
2022-11-17T03:02:52.518Z,2.60
2022-11-17T03:04:00.486Z,3.08
2022-11-17T03:05:23.066Z,3.17
2022-11-17T03:06:49.353Z,3.15
2022-11-17T03:08:27.625Z,3.40
2022-11-17T03:09:49.852Z,3.55
2022-11-17T03:11:07.405Z,3.95
2022-11-17T03:12:38.591Z,3.05
2022-11-17T03:13:43.705Z,3.67
2022-11-17T03:15:12.834Z,3.75
2022-11-17T03:16:51.385Z,3.70
2022-11-17T03:18:18.366Z,3.55
2022-11-17T03:19:47.780Z,4.32
2022-11-17T03:21:18.813Z,4.03
2022-11-17T03:22:32.540Z,3.33
2022-11-17T03:23:34.944Z,3.67
2022-11-17T03:24:41.911Z,3.33
2022-11-17T03:25:51.354Z,3.78
2022-11-17T03:27:00.040Z,3.65
2022-11-17T03:28:06.914Z,3.33
2022-11-17T03:29:13.515Z,5.47
2022-11-17T03:30:17.750Z,3.65
2022-11-17T03:31:22.206Z,3.10
2022-11-17T03:32:27.016Z,3.45
2022-11-17T03:33:31.303Z,3.20
2022-11-17T03:34:42.574Z,3.15
2022-11-17T03:35:52.369Z,2.70
2022-11-17T03:37:00.827Z,3.22
2022-11-17T03:38:09.685Z,2.63
2022-11-17T03:39:26.853Z,2.78
2022-11-17T03:40:32.864Z,2.60
2022-11-17T03:41:41.291Z,2.60
2022-11-17T03:42:52.631Z,3.17
2022-11-17T03:43:57.396Z,2.58
2022-11-17T03:45:09.848Z,2.78
2022-11-17T03:47:20.047Z,2.72
2022-11-17T03:48:32.307Z,2.90
2022-11-17T03:50:13.916Z,2.72
2022-11-17T03:51:21.961Z,2.53
2022-11-17T03:52:25.119Z,2.40
2022-11-17T03:53:27.281Z,2.35
2022-11-17T03:54:29.940Z,2.88
2022-11-17T03:55:56.374Z,2.65
2022-11-17T03:57:05.280Z,3.30
2022-11-17T03:58:12.560Z,2.47
2022-11-17T03:59:49.961Z,2.80
2022-11-17T04:00:54.629Z,2.63
2022-11-17T04:01:57.015Z,2.58
2022-11-17T04:02:59.363Z,2.78
2022-11-17T04:04:01.539Z,2.55
2022-11-17T04:05:06.850Z,2.90
2022-11-17T04:06:09.091Z,2.58
2022-11-17T04:07:11.340Z,2.33
2022-11-17T04:08:13.572Z,2.60
2022-11-17T04:09:19.923Z,2.60
2022-11-17T04:10:26.274Z,2.60
2022-11-17T04:11:46.702Z,2.50
2022-11-17T04:13:09.010Z,2.95
2022-11-17T04:14:29.518Z,2.80
2022-11-17T04:15:52.175Z,2.95
2022-11-17T04:16:54.376Z,2.70
2022-11-17T04:17:56.874Z,2.67
2022-11-17T04:18:59.315Z,2.75
2022-11-17T04:20:01.568Z,2.15
2022-11-17T04:21:04.014Z,2.70
2022-11-17T04:22:06.222Z,2.80
2022-11-17T04:23:14.553Z,2.47
2022-11-17T04:24:16.729Z,2.40
2022-11-17T04:25:38.859Z,2.90
2022-11-17T04:26:59.236Z,2.78
2022-11-17T04:28:22.836Z,3.10
2022-11-17T04:29:25.022Z,3.08
2022-11-17T04:30:27.176Z,2.35
2022-11-17T04:31:31.094Z,2.60
2022-11-17T04:32:33.309Z,2.40
2022-11-17T04:33:36.773Z,2.92
2022-11-17T04:34:41.582Z,3.13
2022-11-17T04:35:50.654Z,2.60
2022-11-17T04:36:52.809Z,2.70
2022-11-17T04:37:54.964Z,2.67
2022-11-17T04:38:59.186Z,2.40
2022-11-17T04:40:01.465Z,2.78
2022-11-17T04:41:24.567Z,2.67
2022-11-17T04:42:26.840Z,2.22
2022-11-17T04:43:29.062Z,2.20
2022-11-17T04:44:32.408Z,2.50
2022-11-17T04:45:34.801Z,3.03
2022-11-17T04:46:38.385Z,2.25
2022-11-17T04:47:40.512Z,3.03
2022-11-17T04:48:43.251Z,2.78
2022-11-17T04:49:45.446Z,4.80
2022-11-17T04:50:47.663Z,5.18
2022-11-17T04:51:57.421Z,4.05
2022-11-17T04:52:59.573Z,4.20
2022-11-17T04:54:02.992Z,3.42
2022-11-17T04:55:05.513Z,2.92
2022-11-17T04:56:08.242Z,3.20
2022-11-17T04:57:16.456Z,2.72
2022-11-17T04:58:18.653Z,2.90
2022-11-17T04:59:21.339Z,2.65
2022-11-17T05:00:23.509Z,2.53
2022-11-17T05:01:27.494Z,2.42
2022-11-17T05:02:29.693Z,2.33
2022-11-17T05:03:34.113Z,2.78
2022-11-17T05:04:54.834Z,2.70
2022-11-17T05:05:56.996Z,2.67
2022-11-17T05:06:59.200Z,2.65
2022-11-17T05:08:01.441Z,2.50
2022-11-17T05:09:06.762Z,2.58
2022-11-17T05:10:09.245Z,2.50
2022-11-17T05:11:31.707Z,2.63
2022-11-17T05:12:52.223Z,2.63
2022-11-17T05:13:54.434Z,2.20
2022-11-17T05:14:56.659Z,2.60
2022-11-17T05:16:17.255Z,2.55
2022-11-17T05:17:19.469Z,2.60
2022-11-17T05:18:21.701Z,2.63
2022-11-17T05:19:26.462Z,2.55
2022-11-17T05:20:28.635Z,2.60
2022-11-17T05:21:30.847Z,2.33
2022-11-17T05:22:51.355Z,2.60
2022-11-17T05:23:56.103Z,2.80
2022-11-17T05:24:58.603Z,2.75
2022-11-17T05:26:00.782Z,2.38
2022-11-17T05:27:02.935Z,2.47
2022-11-17T05:28:05.189Z,2.50
2022-11-17T05:29:08.646Z,2.35
2022-11-17T05:30:11.605Z,2.70
2022-11-17T05:31:14.489Z,2.33
2022-11-17T05:32:16.867Z,2.40
2022-11-17T05:33:19.000Z,2.17
2022-11-17T05:34:21.266Z,2.65
2022-11-17T05:35:23.473Z,2.28
2022-11-17T05:36:26.656Z,2.65
2022-11-17T05:37:28.834Z,2.60
2022-11-17T05:38:31.254Z,2.50
2022-11-17T05:39:33.385Z,2.97
2022-11-17T05:40:35.559Z,2.60
2022-11-17T05:41:37.844Z,2.35
2022-11-17T05:42:40.030Z,2.25
2022-11-17T05:43:42.267Z,2.70
2022-11-17T05:44:44.474Z,2.47
2022-11-17T05:45:46.678Z,2.70
2022-11-17T05:46:48.872Z,2.70
2022-11-17T05:47:51.133Z,2.50
2022-11-17T05:48:53.583Z,2.70
2022-11-17T05:49:55.741Z,3.00
2022-11-17T05:50:57.958Z,3.00
2022-11-17T05:52:00.165Z,2.80
2022-11-17T05:53:03.102Z,3.30
2022-11-17T05:54:05.363Z,2.90
2022-11-17T05:55:07.694Z,2.90
2022-11-17T05:56:28.386Z,3.00
2022-11-17T05:57:31.973Z,2.60
2022-11-17T05:58:37.862Z,2.72
2022-11-17T05:59:45.749Z,2.60
2022-11-17T06:00:48.914Z,2.90
2022-11-17T06:02:09.309Z,3.15
2022-11-17T06:03:18.702Z,2.97
2022-11-17T06:04:21.271Z,2.80
2022-11-17T06:05:23.942Z,2.58
2022-11-17T06:06:26.422Z,2.60
2022-11-17T06:07:28.868Z,2.80
2022-11-17T06:08:31.242Z,2.65
2022-11-17T06:09:36.761Z,2.75
2022-11-17T06:10:38.951Z,2.97
2022-11-17T06:11:41.194Z,3.03
2022-11-17T06:12:43.414Z,2.83
2022-11-17T06:13:45.621Z,2.75
2022-11-17T06:14:47.854Z,2.70
2022-11-17T06:15:50.218Z,2.72
2022-11-17T06:16:57.068Z,2.58
2022-11-17T06:18:09.649Z,2.70
2022-11-17T06:20:28.546Z,3.15
2022-11-17T06:21:43.328Z,2.75
2022-11-17T06:22:57.523Z,2.70
2022-11-17T06:24:00.149Z,2.97
2022-11-17T06:25:04.075Z,2.90
2022-11-17T06:26:09.425Z,2.92
2022-11-17T06:27:14.807Z,3.10
2022-11-17T06:28:20.043Z,2.70
2022-11-17T06:29:22.250Z,2.90
2022-11-17T06:30:24.515Z,2.78
2022-11-17T06:31:27.997Z,3.10
2022-11-17T06:32:31.374Z,3.30
2022-11-17T06:33:36.013Z,2.90
2022-11-17T06:34:38.651Z,2.35
2022-11-17T06:35:44.018Z,2.92
2022-11-17T06:36:46.199Z,3.10
2022-11-17T06:37:48.456Z,2.90
2022-11-17T06:38:50.589Z,3.00
2022-11-17T06:39:53.183Z,3.00
2022-11-17T06:40:56.008Z,2.80
2022-11-17T06:41:58.251Z,2.15
2022-11-17T06:43:03.542Z,2.20
2022-11-17T06:44:05.867Z,2.72
2022-11-17T06:45:08.740Z,3.15
2022-11-17T06:46:10.937Z,3.00
2022-11-17T06:47:13.132Z,2.78
2022-11-17T06:48:16.995Z,2.80
2022-11-17T06:49:19.260Z,2.95
2022-11-17T06:50:21.444Z,3.67
2022-11-17T06:51:23.610Z,40.92
2022-11-17T06:52:25.872Z,73.00
2022-11-17T06:53:28.645Z,38.83
2022-11-17T06:54:30.902Z,8.40
2022-11-17T06:55:34.471Z,10.10
2022-11-17T06:56:36.742Z,14.48
2022-11-17T06:57:39.136Z,12.25
2022-11-17T06:58:41.614Z,11.93
2022-11-17T06:59:43.877Z,11.48
2022-11-17T07:00:46.146Z,8.80
2022-11-17T07:01:48.500Z,6.18
2022-11-17T07:02:50.931Z,2.88
2022-11-17T07:03:53.298Z,3.15
2022-11-17T07:04:55.993Z,2.63
2022-11-17T07:06:01.768Z,2.28
2022-11-17T07:07:04.070Z,2.65
2022-11-17T07:08:08.409Z,2.55
2022-11-17T07:09:10.757Z,2.90
2022-11-17T07:10:13.021Z,2.45
2022-11-17T07:11:16.652Z,2.38
2022-11-17T07:12:18.900Z,2.53
2022-11-17T07:13:22.760Z,2.80
2022-11-17T07:14:24.977Z,2.40
2022-11-17T07:15:27.338Z,2.33
2022-11-17T07:16:30.744Z,2.10
2022-11-17T07:17:33.058Z,2.05
2022-11-17T07:18:36.368Z,2.30
2022-11-17T07:19:38.985Z,2.58
2022-11-17T07:20:41.274Z,2.45
2022-11-17T07:21:43.476Z,2.55
2022-11-17T07:22:46.085Z,2.30
2022-11-17T07:23:48.391Z,2.58
2022-11-17T07:24:50.706Z,2.50
2022-11-17T07:25:53.275Z,2.42
2022-11-17T07:26:55.577Z,2.75
2022-11-17T07:27:59.753Z,2.47
2022-11-17T07:29:01.976Z,2.35
2022-11-17T07:30:05.789Z,2.55
2022-11-17T07:31:09.193Z,2.70
2022-11-17T07:32:13.812Z,2.78
2022-11-17T07:33:16.033Z,2.63
2022-11-17T07:34:18.374Z,4.32
2022-11-17T07:35:20.587Z,3.72
2022-11-17T07:36:22.856Z,3.70
2022-11-17T07:37:25.535Z,3.38
2022-11-17T07:38:31.420Z,3.45
2022-11-17T07:39:33.674Z,3.15
2022-11-17T07:40:35.939Z,2.90
2022-11-17T07:41:38.215Z,3.78
2022-11-17T07:42:40.434Z,3.42
2022-11-17T07:43:42.657Z,3.67
2022-11-17T07:44:44.884Z,4.20
2022-11-17T07:45:47.177Z,3.55
2022-11-17T07:46:49.576Z,3.33
2022-11-17T07:48:03.172Z,3.28
2022-11-17T07:49:05.426Z,2.88
2022-11-17T07:50:08.039Z,3.45
2022-11-17T07:51:10.378Z,2.80
2022-11-17T07:52:12.589Z,2.30
2022-11-17T07:53:15.272Z,2.75
2022-11-17T07:54:17.593Z,2.40
2022-11-17T07:55:20.610Z,2.60
2022-11-17T07:56:22.868Z,2.60
2022-11-17T07:57:25.722Z,2.80
2022-11-17T07:58:29.788Z,2.72
2022-11-17T07:59:32.071Z,2.20
2022-11-17T08:00:34.428Z,2.40
2022-11-17T08:01:37.084Z,2.40
2022-11-17T08:02:40.438Z,2.55
2022-11-17T08:03:43.927Z,2.30
2022-11-17T08:04:46.235Z,2.60
2022-11-17T08:05:48.493Z,2.50
2022-11-17T08:06:50.948Z,3.53
2022-11-17T08:07:57.424Z,4.47
2022-11-17T08:08:59.699Z,4.32
2022-11-17T08:10:02.764Z,2.90
2022-11-17T08:11:07.035Z,2.65
2022-11-17T08:12:09.260Z,2.38
2022-11-17T08:13:12.796Z,3.00
2022-11-17T08:14:15.077Z,3.03
2022-11-17T08:15:18.067Z,10.85
2022-11-17T08:16:20.660Z,15.82
2022-11-17T08:17:23.086Z,13.05
2022-11-17T08:18:26.059Z,8.63
2022-11-17T08:19:28.267Z,5.82
2022-11-17T08:20:30.537Z,2.83
2022-11-17T08:21:32.875Z,2.85
2022-11-17T08:22:35.141Z,2.65
2022-11-17T08:23:38.551Z,2.35
2022-11-17T08:24:40.780Z,2.08
2022-11-17T08:25:43.380Z,1.73
2022-11-17T08:26:45.722Z,2.03
2022-11-17T08:27:52.204Z,2.10
2022-11-17T08:28:58.360Z,2.00
2022-11-17T08:30:01.143Z,2.10
2022-11-17T08:31:05.335Z,1.75
2022-11-17T08:32:07.728Z,1.58
2022-11-17T08:33:10.305Z,1.55
2022-11-17T08:34:12.815Z,1.73
2022-11-17T08:35:15.855Z,1.55
2022-11-17T08:36:18.103Z,1.40
2022-11-17T08:37:20.413Z,1.52
2022-11-17T08:38:24.855Z,1.52
2022-11-17T08:39:27.179Z,1.88
2022-11-17T08:40:29.497Z,1.50
2022-11-17T08:41:32.230Z,1.70
2022-11-17T08:42:34.457Z,1.40
2022-11-17T08:43:36.846Z,1.73
2022-11-17T08:44:39.233Z,1.58
2022-11-17T08:45:42.888Z,1.30
2022-11-17T08:46:45.370Z,1.42
2022-11-17T08:47:47.737Z,1.10
2022-11-17T08:48:55.520Z,1.20
2022-11-17T08:49:59.878Z,1.13
2022-11-17T08:51:06.796Z,1.42
2022-11-17T08:52:09.170Z,1.33
2022-11-17T08:53:16.303Z,1.35
2022-11-17T08:54:18.822Z,1.30
2022-11-17T08:55:21.398Z,0.90
2022-11-17T08:56:24.012Z,1.40
2022-11-17T08:57:26.581Z,1.50
2022-11-17T08:58:28.962Z,1.55
2022-11-17T08:59:31.340Z,1.30
2022-11-17T09:00:34.093Z,1.40
2022-11-17T09:01:36.456Z,1.42
2022-11-17T09:02:38.777Z,1.35
2022-11-17T09:03:44.086Z,1.27
2022-11-17T09:04:47.745Z,1.17
2022-11-17T09:05:50.462Z,1.98
2022-11-17T09:06:52.863Z,1.13
2022-11-17T09:07:55.349Z,1.17
2022-11-17T09:08:58.091Z,1.50
2022-11-17T09:10:01.512Z,1.33
2022-11-17T09:11:11.531Z,1.60
2022-11-17T09:12:14.654Z,1.50
2022-11-17T09:13:18.763Z,1.60
2022-11-17T09:14:21.225Z,1.85
2022-11-17T09:15:24.681Z,1.52
2022-11-17T09:16:27.334Z,1.83
2022-11-17T09:17:31.070Z,1.90
2022-11-17T09:18:34.458Z,2.05
2022-11-17T09:19:37.067Z,1.83
2022-11-17T09:20:45.280Z,1.80
2022-11-17T09:21:48.727Z,1.63
2022-11-17T09:22:52.018Z,1.67
2022-11-17T09:23:54.932Z,1.88
2022-11-17T09:24:57.437Z,1.95
2022-11-17T09:26:06.231Z,1.85
2022-11-17T09:27:08.973Z,1.80
2022-11-17T09:28:11.729Z,2.03
2022-11-17T09:29:14.675Z,1.70
2022-11-17T09:30:21.979Z,1.80
2022-11-17T09:31:24.645Z,1.73
2022-11-17T09:32:27.629Z,2.00
2022-11-17T09:33:30.116Z,1.80
2022-11-17T09:34:32.756Z,2.20
2022-11-17T09:35:35.411Z,2.10
